sensor_id;sensor_type;location;lat;lon;timestamp;P1;durP1;ratioP1;P2;durP2;ratioP2
76296;SDS011;65104;52.994;6.552;2022-12-18T00:01:17;56.55;;;18.20;;
76296;SDS011;65104;52.994;6.552;2022-12-18T00:03:45;49.35;;;15.73;;
76296;SDS011;65104;52.994;6.552;2022-12-18T00:06:12;48.70;;;15.70;;
76296;SDS011;65104;52.994;6.552;2022-12-18T00:08:40;52.90;;;16.88;;
76296;SDS011;65104;52.994;6.552;2022-12-18T00:11:07;52.90;;;16.83;;
76296;SDS011;65104;52.994;6.552;2022-12-18T00:13:35;53.88;;;17.83;;
76296;SDS011;65104;52.994;6.552;2022-12-18T00:16:02;34.85;;;13.90;;
76296;SDS011;65104;52.994;6.552;2022-12-18T00:18:29;42.88;;;13.80;;
76296;SDS011;65104;52.994;6.552;2022-12-18T00:20:58;48.38;;;16.42;;
76296;SDS011;65104;52.994;6.552;2022-12-18T00:23:28;40.40;;;14.30;;
76296;SDS011;65104;52.994;6.552;2022-12-18T00:25:58;45.35;;;14.68;;
76296;SDS011;65104;52.994;6.552;2022-12-18T00:28:25;59.22;;;17.05;;
76296;SDS011;65104;52.994;6.552;2022-12-18T00:30:51;46.40;;;14.60;;
76296;SDS011;65104;52.994;6.552;2022-12-18T00:33:36;45.78;;;14.15;;
76296;SDS011;65104;52.994;6.552;2022-12-18T00:36:07;50.00;;;15.23;;
76296;SDS011;65104;52.994;6.552;2022-12-18T00:38:36;39.67;;;13.48;;
76296;SDS011;65104;52.994;6.552;2022-12-18T00:41:03;57.03;;;16.92;;
76296;SDS011;65104;52.994;6.552;2022-12-18T00:43:29;48.08;;;15.27;;
76296;SDS011;65104;52.994;6.552;2022-12-18T00:45:55;64.93;;;17.70;;
76296;SDS011;65104;52.994;6.552;2022-12-18T00:48:21;50.17;;;16.38;;
76296;SDS011;65104;52.994;6.552;2022-12-18T00:50:47;58.80;;;15.98;;
76296;SDS011;65104;52.994;6.552;2022-12-18T00:53:14;44.53;;;17.13;;
76296;SDS011;65104;52.994;6.552;2022-12-18T00:55:40;49.67;;;15.45;;
76296;SDS011;65104;52.994;6.552;2022-12-18T00:58:07;55.35;;;16.88;;
76296;SDS011;65104;52.994;6.552;2022-12-18T01:00:33;49.72;;;16.33;;
76296;SDS011;65104;52.994;6.552;2022-12-18T01:02:58;42.78;;;14.98;;
76296;SDS011;65104;52.994;6.552;2022-12-18T01:05:25;46.72;;;16.17;;
76296;SDS011;65104;52.994;6.552;2022-12-18T01:07:51;36.25;;;12.82;;
76296;SDS011;65104;52.994;6.552;2022-12-18T01:10:17;41.13;;;13.40;;
76296;SDS011;65104;52.994;6.552;2022-12-18T01:12:43;47.67;;;15.70;;
76296;SDS011;65104;52.994;6.552;2022-12-18T01:15:09;40.30;;;14.75;;
76296;SDS011;65104;52.994;6.552;2022-12-18T01:17:36;45.78;;;16.35;;
76296;SDS011;65104;52.994;6.552;2022-12-18T01:20:02;52.10;;;17.98;;
76296;SDS011;65104;52.994;6.552;2022-12-18T01:22:28;49.10;;;14.50;;
76296;SDS011;65104;52.994;6.552;2022-12-18T01:24:54;58.72;;;17.33;;
76296;SDS011;65104;52.994;6.552;2022-12-18T01:27:19;41.80;;;14.88;;
76296;SDS011;65104;52.994;6.552;2022-12-18T01:29:46;43.33;;;14.50;;
76296;SDS011;65104;52.994;6.552;2022-12-18T01:32:12;54.67;;;15.68;;
76296;SDS011;65104;52.994;6.552;2022-12-18T01:34:38;50.80;;;14.93;;
76296;SDS011;65104;52.994;6.552;2022-12-18T01:37:04;52.85;;;15.48;;
76296;SDS011;65104;52.994;6.552;2022-12-18T01:39:31;47.55;;;15.80;;
76296;SDS011;65104;52.994;6.552;2022-12-18T01:41:58;42.55;;;15.73;;
76296;SDS011;65104;52.994;6.552;2022-12-18T01:47:25;52.60;;;15.35;;
76296;SDS011;65104;52.994;6.552;2022-12-18T01:52:45;42.72;;;14.85;;
76296;SDS011;65104;52.994;6.552;2022-12-18T01:55:16;45.63;;;15.18;;
76296;SDS011;65104;52.994;6.552;2022-12-18T01:57:46;49.20;;;14.48;;
76296;SDS011;65104;52.994;6.552;2022-12-18T02:00:14;49.38;;;15.35;;
76296;SDS011;65104;52.994;6.552;2022-12-18T02:02:45;49.50;;;15.68;;
76296;SDS011;65104;52.994;6.552;2022-12-18T02:05:12;53.10;;;17.52;;
76296;SDS011;65104;52.994;6.552;2022-12-18T02:07:45;56.60;;;17.17;;
76296;SDS011;65104;52.994;6.552;2022-12-18T02:10:25;46.58;;;14.50;;
76296;SDS011;65104;52.994;6.552;2022-12-18T02:13:21;49.00;;;16.30;;
76296;SDS011;65104;52.994;6.552;2022-12-18T02:16:05;53.85;;;16.98;;
76296;SDS011;65104;52.994;6.552;2022-12-18T02:18:58;51.90;;;16.73;;
76296;SDS011;65104;52.994;6.552;2022-12-18T02:27:22;53.17;;;16.38;;
76296;SDS011;65104;52.994;6.552;2022-12-18T02:29:50;48.92;;;14.02;;
76296;SDS011;65104;52.994;6.552;2022-12-18T02:32:21;54.13;;;17.40;;
76296;SDS011;65104;52.994;6.552;2022-12-18T02:34:55;48.95;;;17.23;;
76296;SDS011;65104;52.994;6.552;2022-12-18T02:37:24;55.30;;;17.10;;
76296;SDS011;65104;52.994;6.552;2022-12-18T02:39:52;48.10;;;16.85;;
76296;SDS011;65104;52.994;6.552;2022-12-18T02:42:22;51.35;;;15.25;;
76296;SDS011;65104;52.994;6.552;2022-12-18T02:44:50;51.47;;;16.58;;
76296;SDS011;65104;52.994;6.552;2022-12-18T02:47:18;51.10;;;17.20;;
76296;SDS011;65104;52.994;6.552;2022-12-18T03:01:42;49.97;;;15.90;;
76296;SDS011;65104;52.994;6.552;2022-12-18T03:07:03;46.50;;;15.85;;
76296;SDS011;65104;52.994;6.552;2022-12-18T03:09:36;49.20;;;15.02;;
76296;SDS011;65104;52.994;6.552;2022-12-18T03:12:27;51.28;;;14.98;;
76296;SDS011;65104;52.994;6.552;2022-12-18T03:17:40;53.30;;;17.23;;
76296;SDS011;65104;52.994;6.552;2022-12-18T03:20:12;42.92;;;14.88;;
76296;SDS011;65104;52.994;6.552;2022-12-18T03:22:43;52.83;;;15.82;;
76296;SDS011;65104;52.994;6.552;2022-12-18T03:25:13;56.28;;;15.98;;
76296;SDS011;65104;52.994;6.552;2022-12-18T03:27:42;47.95;;;16.15;;
76296;SDS011;65104;52.994;6.552;2022-12-18T03:30:13;49.15;;;16.60;;
76296;SDS011;65104;52.994;6.552;2022-12-18T03:32:54;52.20;;;15.75;;
76296;SDS011;65104;52.994;6.552;2022-12-18T03:35:29;49.55;;;17.58;;
76296;SDS011;65104;52.994;6.552;2022-12-18T03:37:59;42.33;;;14.88;;
76296;SDS011;65104;52.994;6.552;2022-12-18T03:43:18;45.88;;;15.07;;
76296;SDS011;65104;52.994;6.552;2022-12-18T03:48:36;35.28;;;12.32;;
76296;SDS011;65104;52.994;6.552;2022-12-18T03:51:09;44.50;;;14.30;;
76296;SDS011;65104;52.994;6.552;2022-12-18T03:56:32;45.78;;;15.57;;
76296;SDS011;65104;52.994;6.552;2022-12-18T03:59:03;55.40;;;15.70;;
76296;SDS011;65104;52.994;6.552;2022-12-18T04:01:33;54.42;;;15.40;;
76296;SDS011;65104;52.994;6.552;2022-12-18T04:04:03;50.42;;;16.17;;
76296;SDS011;65104;52.994;6.552;2022-12-18T04:06:30;50.05;;;16.08;;
76296;SDS011;65104;52.994;6.552;2022-12-18T04:08:58;54.30;;;15.23;;
76296;SDS011;65104;52.994;6.552;2022-12-18T04:11:25;46.03;;;15.27;;
76296;SDS011;65104;52.994;6.552;2022-12-18T04:13:52;51.58;;;17.75;;
76296;SDS011;65104;52.994;6.552;2022-12-18T04:16:21;48.15;;;16.08;;
76296;SDS011;65104;52.994;6.552;2022-12-18T04:18:47;44.83;;;14.35;;
76296;SDS011;65104;52.994;6.552;2022-12-18T04:21:13;46.70;;;16.10;;
76296;SDS011;65104;52.994;6.552;2022-12-18T04:23:39;46.75;;;16.00;;
76296;SDS011;65104;52.994;6.552;2022-12-18T04:26:05;38.42;;;12.75;;
76296;SDS011;65104;52.994;6.552;2022-12-18T04:28:31;43.20;;;15.30;;
76296;SDS011;65104;52.994;6.552;2022-12-18T04:30:57;44.83;;;14.93;;
76296;SDS011;65104;52.994;6.552;2022-12-18T04:33:23;41.72;;;13.70;;
76296;SDS011;65104;52.994;6.552;2022-12-18T04:35:48;39.58;;;14.40;;
76296;SDS011;65104;52.994;6.552;2022-12-18T04:38:17;44.03;;;15.45;;
76296;SDS011;65104;52.994;6.552;2022-12-18T04:40:42;40.72;;;15.23;;
76296;SDS011;65104;52.994;6.552;2022-12-18T04:43:08;39.25;;;13.82;;
76296;SDS011;65104;52.994;6.552;2022-12-18T04:45:34;39.55;;;14.00;;
76296;SDS011;65104;52.994;6.552;2022-12-18T04:48:00;41.53;;;14.07;;
76296;SDS011;65104;52.994;6.552;2022-12-18T04:50:26;42.15;;;13.98;;
76296;SDS011;65104;52.994;6.552;2022-12-18T04:52:52;40.75;;;14.10;;
76296;SDS011;65104;52.994;6.552;2022-12-18T04:55:18;36.75;;;13.30;;
76296;SDS011;65104;52.994;6.552;2022-12-18T04:57:43;42.17;;;13.90;;
76296;SDS011;65104;52.994;6.552;2022-12-18T05:00:09;36.95;;;13.98;;
76296;SDS011;65104;52.994;6.552;2022-12-18T05:02:35;38.78;;;14.25;;
76296;SDS011;65104;52.994;6.552;2022-12-18T05:05:00;40.25;;;14.55;;
76296;SDS011;65104;52.994;6.552;2022-12-18T05:07:26;37.50;;;13.07;;
76296;SDS011;65104;52.994;6.552;2022-12-18T05:09:51;43.42;;;14.70;;
76296;SDS011;65104;52.994;6.552;2022-12-18T05:12:16;37.33;;;13.50;;
76296;SDS011;65104;52.994;6.552;2022-12-18T05:14:42;39.33;;;12.27;;
76296;SDS011;65104;52.994;6.552;2022-12-18T05:17:07;33.25;;;11.88;;
76296;SDS011;65104;52.994;6.552;2022-12-18T05:19:33;34.20;;;11.98;;
76296;SDS011;65104;52.994;6.552;2022-12-18T05:21:58;34.88;;;11.65;;
76296;SDS011;65104;52.994;6.552;2022-12-18T05:24:24;30.83;;;12.15;;
76296;SDS011;65104;52.994;6.552;2022-12-18T05:26:50;37.58;;;12.73;;
76296;SDS011;65104;52.994;6.552;2022-12-18T05:29:15;35.65;;;13.88;;
76296;SDS011;65104;52.994;6.552;2022-12-18T05:31:41;29.67;;;11.30;;
76296;SDS011;65104;52.994;6.552;2022-12-18T05:34:06;31.27;;;12.43;;
76296;SDS011;65104;52.994;6.552;2022-12-18T05:36:32;31.27;;;13.15;;
76296;SDS011;65104;52.994;6.552;2022-12-18T05:38:57;28.88;;;11.35;;
76296;SDS011;65104;52.994;6.552;2022-12-18T05:41:23;27.40;;;11.45;;
76296;SDS011;65104;52.994;6.552;2022-12-18T05:43:48;26.75;;;9.70;;
76296;SDS011;65104;52.994;6.552;2022-12-18T05:46:15;29.25;;;10.70;;
76296;SDS011;65104;52.994;6.552;2022-12-18T05:48:42;34.30;;;9.80;;
76296;SDS011;65104;52.994;6.552;2022-12-18T05:51:11;28.73;;;10.23;;
76296;SDS011;65104;52.994;6.552;2022-12-18T05:53:43;35.47;;;12.05;;
76296;SDS011;65104;52.994;6.552;2022-12-18T05:56:12;27.92;;;11.45;;
76296;SDS011;65104;52.994;6.552;2022-12-18T05:58:40;26.75;;;11.00;;
76296;SDS011;65104;52.994;6.552;2022-12-18T06:01:10;25.50;;;9.82;;
76296;SDS011;65104;52.994;6.552;2022-12-18T06:03:38;31.77;;;11.35;;
76296;SDS011;65104;52.994;6.552;2022-12-18T06:06:04;22.20;;;10.20;;
76296;SDS011;65104;52.994;6.552;2022-12-18T06:08:37;27.05;;;11.30;;
76296;SDS011;65104;52.994;6.552;2022-12-18T06:11:03;25.88;;;10.75;;
76296;SDS011;65104;52.994;6.552;2022-12-18T06:13:28;27.67;;;10.43;;
76296;SDS011;65104;52.994;6.552;2022-12-18T06:15:53;26.52;;;11.93;;
76296;SDS011;65104;52.994;6.552;2022-12-18T06:18:19;22.85;;;9.73;;
76296;SDS011;65104;52.994;6.552;2022-12-18T06:20:44;23.58;;;9.52;;
76296;SDS011;65104;52.994;6.552;2022-12-18T06:23:10;26.67;;;10.55;;
76296;SDS011;65104;52.994;6.552;2022-12-18T06:25:37;27.48;;;11.10;;
76296;SDS011;65104;52.994;6.552;2022-12-18T06:28:03;32.58;;;12.15;;
76296;SDS011;65104;52.994;6.552;2022-12-18T06:30:29;22.50;;;9.63;;
76296;SDS011;65104;52.994;6.552;2022-12-18T06:32:54;25.88;;;9.68;;
76296;SDS011;65104;52.994;6.552;2022-12-18T06:35:20;20.13;;;9.60;;
76296;SDS011;65104;52.994;6.552;2022-12-18T06:37:45;28.02;;;10.80;;
76296;SDS011;65104;52.994;6.552;2022-12-18T06:40:11;26.27;;;9.52;;
76296;SDS011;65104;52.994;6.552;2022-12-18T06:42:36;29.17;;;10.95;;
76296;SDS011;65104;52.994;6.552;2022-12-18T06:45:02;20.80;;;9.07;;
76296;SDS011;65104;52.994;6.552;2022-12-18T06:47:27;20.35;;;10.07;;
76296;SDS011;65104;52.994;6.552;2022-12-18T06:49:53;21.27;;;8.75;;
76296;SDS011;65104;52.994;6.552;2022-12-18T06:52:18;21.85;;;9.30;;
76296;SDS011;65104;52.994;6.552;2022-12-18T06:54:44;22.92;;;9.68;;
76296;SDS011;65104;52.994;6.552;2022-12-18T06:57:10;22.77;;;9.77;;
76296;SDS011;65104;52.994;6.552;2022-12-18T06:59:35;16.35;;;8.52;;
76296;SDS011;65104;52.994;6.552;2022-12-18T07:02:01;23.23;;;9.63;;
76296;SDS011;65104;52.994;6.552;2022-12-18T07:04:29;27.02;;;10.73;;
76296;SDS011;65104;52.994;6.552;2022-12-18T07:06:55;22.35;;;10.07;;
76296;SDS011;65104;52.994;6.552;2022-12-18T07:09:20;22.88;;;9.65;;
76296;SDS011;65104;52.994;6.552;2022-12-18T07:11:46;24.38;;;10.35;;
76296;SDS011;65104;52.994;6.552;2022-12-18T07:14:11;27.42;;;11.02;;
76296;SDS011;65104;52.994;6.552;2022-12-18T07:16:36;26.52;;;10.25;;
76296;SDS011;65104;52.994;6.552;2022-12-18T07:19:02;24.58;;;9.98;;
76296;SDS011;65104;52.994;6.552;2022-12-18T07:21:27;24.38;;;9.75;;
76296;SDS011;65104;52.994;6.552;2022-12-18T07:23:53;21.85;;;9.80;;
76296;SDS011;65104;52.994;6.552;2022-12-18T07:26:19;24.95;;;10.88;;
76296;SDS011;65104;52.994;6.552;2022-12-18T07:28:46;23.63;;;9.25;;
76296;SDS011;65104;52.994;6.552;2022-12-18T07:31:16;28.63;;;10.43;;
76296;SDS011;65104;52.994;6.552;2022-12-18T07:33:44;29.23;;;11.05;;
76296;SDS011;65104;52.994;6.552;2022-12-18T07:36:10;23.67;;;9.82;;
76296;SDS011;65104;52.994;6.552;2022-12-18T07:38:36;26.08;;;10.10;;
76296;SDS011;65104;52.994;6.552;2022-12-18T07:41:02;27.63;;;10.82;;
76296;SDS011;65104;52.994;6.552;2022-12-18T07:43:29;22.02;;;9.57;;
76296;SDS011;65104;52.994;6.552;2022-12-18T07:45:54;24.15;;;8.88;;
76296;SDS011;65104;52.994;6.552;2022-12-18T07:48:20;23.75;;;9.60;;
76296;SDS011;65104;52.994;6.552;2022-12-18T07:50:45;27.58;;;10.27;;
76296;SDS011;65104;52.994;6.552;2022-12-18T07:53:11;19.52;;;8.68;;
76296;SDS011;65104;52.994;6.552;2022-12-18T07:55:36;21.73;;;9.77;;
76296;SDS011;65104;52.994;6.552;2022-12-18T07:58:02;20.52;;;8.73;;
76296;SDS011;65104;52.994;6.552;2022-12-18T08:00:29;20.55;;;8.80;;
76296;SDS011;65104;52.994;6.552;2022-12-18T08:02:54;17.55;;;8.95;;
76296;SDS011;65104;52.994;6.552;2022-12-18T08:05:20;24.70;;;9.18;;
76296;SDS011;65104;52.994;6.552;2022-12-18T08:07:46;16.02;;;8.40;;
76296;SDS011;65104;52.994;6.552;2022-12-18T08:10:12;21.40;;;8.52;;
76296;SDS011;65104;52.994;6.552;2022-12-18T08:12:37;18.73;;;8.55;;
76296;SDS011;65104;52.994;6.552;2022-12-18T08:15:03;18.98;;;8.25;;
76296;SDS011;65104;52.994;6.552;2022-12-18T08:17:29;22.38;;;8.73;;
76296;SDS011;65104;52.994;6.552;2022-12-18T08:19:54;22.58;;;8.80;;
76296;SDS011;65104;52.994;6.552;2022-12-18T08:22:20;19.25;;;8.20;;
76296;SDS011;65104;52.994;6.552;2022-12-18T08:24:45;18.80;;;8.60;;
76296;SDS011;65104;52.994;6.552;2022-12-18T08:27:10;19.48;;;8.52;;
76296;SDS011;65104;52.994;6.552;2022-12-18T08:29:36;19.92;;;9.32;;
76296;SDS011;65104;52.994;6.552;2022-12-18T08:32:02;22.05;;;9.23;;
76296;SDS011;65104;52.994;6.552;2022-12-18T08:34:28;16.10;;;8.00;;
76296;SDS011;65104;52.994;6.552;2022-12-18T08:36:53;15.32;;;8.77;;
76296;SDS011;65104;52.994;6.552;2022-12-18T08:39:19;16.63;;;7.72;;
76296;SDS011;65104;52.994;6.552;2022-12-18T08:41:44;21.02;;;9.90;;
76296;SDS011;65104;52.994;6.552;2022-12-18T08:44:29;21.58;;;9.57;;
76296;SDS011;65104;52.994;6.552;2022-12-18T08:47:04;20.20;;;8.02;;
76296;SDS011;65104;52.994;6.552;2022-12-18T08:49:31;19.20;;;8.52;;
76296;SDS011;65104;52.994;6.552;2022-12-18T08:51:57;20.20;;;8.00;;
76296;SDS011;65104;52.994;6.552;2022-12-18T08:54:22;16.00;;;7.82;;
76296;SDS011;65104;52.994;6.552;2022-12-18T08:56:49;12.93;;;6.57;;
76296;SDS011;65104;52.994;6.552;2022-12-18T08:59:15;18.23;;;7.07;;
76296;SDS011;65104;52.994;6.552;2022-12-18T09:01:41;19.60;;;8.13;;
76296;SDS011;65104;52.994;6.552;2022-12-18T09:04:07;21.05;;;9.32;;
76296;SDS011;65104;52.994;6.552;2022-12-18T09:06:34;14.32;;;7.28;;
76296;SDS011;65104;52.994;6.552;2022-12-18T09:08:59;18.70;;;7.85;;
76296;SDS011;65104;52.994;6.552;2022-12-18T09:11:25;14.32;;;6.88;;
76296;SDS011;65104;52.994;6.552;2022-12-18T09:13:52;18.27;;;8.52;;
76296;SDS011;65104;52.994;6.552;2022-12-18T09:16:19;15.00;;;7.32;;
76296;SDS011;65104;52.994;6.552;2022-12-18T09:18:45;16.23;;;7.38;;
76296;SDS011;65104;52.994;6.552;2022-12-18T09:21:12;17.13;;;8.45;;
76296;SDS011;65104;52.994;6.552;2022-12-18T09:23:40;18.02;;;8.60;;
76296;SDS011;65104;52.994;6.552;2022-12-18T09:26:06;19.23;;;7.68;;
76296;SDS011;65104;52.994;6.552;2022-12-18T09:28:32;15.00;;;7.25;;
76296;SDS011;65104;52.994;6.552;2022-12-18T09:30:57;18.08;;;7.88;;
76296;SDS011;65104;52.994;6.552;2022-12-18T09:33:23;14.18;;;7.25;;
76296;SDS011;65104;52.994;6.552;2022-12-18T09:35:49;15.68;;;7.60;;
76296;SDS011;65104;52.994;6.552;2022-12-18T09:38:16;14.00;;;7.72;;
76296;SDS011;65104;52.994;6.552;2022-12-18T09:40:48;14.07;;;8.10;;
76296;SDS011;65104;52.994;6.552;2022-12-18T09:46:10;11.60;;;6.65;;
76296;SDS011;65104;52.994;6.552;2022-12-18T09:48:43;14.25;;;7.40;;
76296;SDS011;65104;52.994;6.552;2022-12-18T09:51:14;15.02;;;7.22;;
76296;SDS011;65104;52.994;6.552;2022-12-18T09:53:46;15.25;;;6.75;;
76296;SDS011;65104;52.994;6.552;2022-12-18T09:56:18;15.52;;;6.68;;
76296;SDS011;65104;52.994;6.552;2022-12-18T09:58:57;11.45;;;7.05;;
76296;SDS011;65104;52.994;6.552;2022-12-18T10:01:26;10.43;;;5.88;;
76296;SDS011;65104;52.994;6.552;2022-12-18T10:03:52;11.70;;;6.28;;
76296;SDS011;65104;52.994;6.552;2022-12-18T10:06:23;15.07;;;6.70;;
76296;SDS011;65104;52.994;6.552;2022-12-18T10:11:37;14.63;;;6.55;;
76296;SDS011;65104;52.994;6.552;2022-12-18T10:17:19;12.38;;;5.47;;
76296;SDS011;65104;52.994;6.552;2022-12-18T10:28:14;9.73;;;5.38;;
76296;SDS011;65104;52.994;6.552;2022-12-18T10:30:42;8.05;;;4.75;;
76296;SDS011;65104;52.994;6.552;2022-12-18T10:33:12;10.75;;;5.15;;
76296;SDS011;65104;52.994;6.552;2022-12-18T10:35:41;9.05;;;4.95;;
76296;SDS011;65104;52.994;6.552;2022-12-18T10:48:34;6.97;;;4.05;;
76296;SDS011;65104;52.994;6.552;2022-12-18T10:51:05;8.15;;;4.28;;
76296;SDS011;65104;52.994;6.552;2022-12-18T10:53:32;10.05;;;4.40;;
76296;SDS011;65104;52.994;6.552;2022-12-18T10:55:59;8.38;;;4.13;;
76296;SDS011;65104;52.994;6.552;2022-12-18T10:58:27;7.20;;;4.30;;
76296;SDS011;65104;52.994;6.552;2022-12-18T11:01:16;7.30;;;3.78;;
76296;SDS011;65104;52.994;6.552;2022-12-18T11:03:45;8.15;;;3.53;;
76296;SDS011;65104;52.994;6.552;2022-12-18T11:06:24;8.00;;;3.88;;
76296;SDS011;65104;52.994;6.552;2022-12-18T11:08:57;7.70;;;3.80;;
76296;SDS011;65104;52.994;6.552;2022-12-18T11:11:23;7.32;;;3.72;;
76296;SDS011;65104;52.994;6.552;2022-12-18T11:16:29;6.18;;;4.00;;
76296;SDS011;65104;52.994;6.552;2022-12-18T11:19:10;6.80;;;3.95;;
76296;SDS011;65104;52.994;6.552;2022-12-18T11:21:47;8.80;;;3.38;;
76296;SDS011;65104;52.994;6.552;2022-12-18T11:24:32;7.18;;;3.33;;
76296;SDS011;65104;52.994;6.552;2022-12-18T11:27:00;4.60;;;2.67;;
76296;SDS011;65104;52.994;6.552;2022-12-18T11:29:30;6.85;;;2.95;;
76296;SDS011;65104;52.994;6.552;2022-12-18T11:35:15;5.50;;;2.95;;
76296;SDS011;65104;52.994;6.552;2022-12-18T11:38:10;5.80;;;3.78;;
76296;SDS011;65104;52.994;6.552;2022-12-18T11:40:43;7.68;;;4.15;;
76296;SDS011;65104;52.994;6.552;2022-12-18T11:43:16;6.82;;;4.15;;
76296;SDS011;65104;52.994;6.552;2022-12-18T11:45:56;8.77;;;4.30;;
76296;SDS011;65104;52.994;6.552;2022-12-18T11:48:36;9.18;;;4.13;;
76296;SDS011;65104;52.994;6.552;2022-12-18T11:51:14;7.90;;;4.60;;
76296;SDS011;65104;52.994;6.552;2022-12-18T11:53:48;7.47;;;4.30;;
76296;SDS011;65104;52.994;6.552;2022-12-18T11:56:33;7.35;;;4.30;;
76296;SDS011;65104;52.994;6.552;2022-12-18T12:01:53;7.95;;;4.45;;
76296;SDS011;65104;52.994;6.552;2022-12-18T12:07:31;8.05;;;4.18;;
76296;SDS011;65104;52.994;6.552;2022-12-18T12:13:00;9.52;;;4.53;;
76296;SDS011;65104;52.994;6.552;2022-12-18T12:18:36;6.78;;;3.75;;
76296;SDS011;65104;52.994;6.552;2022-12-18T12:21:15;10.70;;;5.45;;
76296;SDS011;65104;52.994;6.552;2022-12-18T12:40:24;5.47;;;3.90;;
76296;SDS011;65104;52.994;6.552;2022-12-18T12:42:58;7.00;;;3.65;;
76296;SDS011;65104;52.994;6.552;2022-12-18T12:51:21;7.97;;;3.90;;
76296;SDS011;65104;52.994;6.552;2022-12-18T12:53:53;6.40;;;3.92;;
76296;SDS011;65104;52.994;6.552;2022-12-18T12:56:21;8.07;;;4.72;;
76296;SDS011;65104;52.994;6.552;2022-12-18T13:01:40;7.65;;;3.92;;
76296;SDS011;65104;52.994;6.552;2022-12-18T13:09:33;8.13;;;5.50;;
76296;SDS011;65104;52.994;6.552;2022-12-18T13:12:03;7.47;;;3.97;;
76296;SDS011;65104;52.994;6.552;2022-12-18T13:14:52;6.57;;;4.30;;
76296;SDS011;65104;52.994;6.552;2022-12-18T13:17:24;8.13;;;4.20;;
76296;SDS011;65104;52.994;6.552;2022-12-18T13:20:15;8.55;;;4.55;;
76296;SDS011;65104;52.994;6.552;2022-12-18T13:22:42;9.18;;;4.57;;
76296;SDS011;65104;52.994;6.552;2022-12-18T13:27:59;5.25;;;3.38;;
76296;SDS011;65104;52.994;6.552;2022-12-18T13:38:22;9.05;;;3.90;;
76296;SDS011;65104;52.994;6.552;2022-12-18T13:45:44;9.70;;;4.40;;
76296;SDS011;65104;52.994;6.552;2022-12-18T13:48:29;4.85;;;3.47;;
76296;SDS011;65104;52.994;6.552;2022-12-18T13:51:03;7.18;;;3.72;;
76296;SDS011;65104;52.994;6.552;2022-12-18T13:53:53;7.20;;;3.47;;
76296;SDS011;65104;52.994;6.552;2022-12-18T13:56:17;7.30;;;3.85;;
76296;SDS011;65104;52.994;6.552;2022-12-18T13:58:46;4.90;;;3.55;;
76296;SDS011;65104;52.994;6.552;2022-12-18T14:01:33;6.50;;;2.95;;
76296;SDS011;65104;52.994;6.552;2022-12-18T14:04:09;6.78;;;3.53;;
76296;SDS011;65104;52.994;6.552;2022-12-18T14:06:36;7.28;;;3.65;;
76296;SDS011;65104;52.994;6.552;2022-12-18T14:09:02;7.03;;;4.00;;
76296;SDS011;65104;52.994;6.552;2022-12-18T14:11:27;7.20;;;3.65;;
76296;SDS011;65104;52.994;6.552;2022-12-18T14:13:54;7.30;;;3.85;;
76296;SDS011;65104;52.994;6.552;2022-12-18T14:16:19;6.03;;;3.90;;
76296;SDS011;65104;52.994;6.552;2022-12-18T14:18:46;8.38;;;4.10;;
76296;SDS011;65104;52.994;6.552;2022-12-18T14:21:29;9.60;;;4.18;;
76296;SDS011;65104;52.994;6.552;2022-12-18T14:26:46;6.35;;;3.78;;
76296;SDS011;65104;52.994;6.552;2022-12-18T14:34:32;6.13;;;3.65;;
76296;SDS011;65104;52.994;6.552;2022-12-18T14:36:57;7.70;;;4.60;;
76296;SDS011;65104;52.994;6.552;2022-12-18T14:39:23;7.72;;;4.45;;
76296;SDS011;65104;52.994;6.552;2022-12-18T14:41:50;5.82;;;3.60;;
76296;SDS011;65104;52.994;6.552;2022-12-18T14:44:16;8.25;;;4.00;;
76296;SDS011;65104;52.994;6.552;2022-12-18T14:46:42;7.13;;;4.32;;
76296;SDS011;65104;52.994;6.552;2022-12-18T14:51:53;7.45;;;4.00;;
76296;SDS011;65104;52.994;6.552;2022-12-18T14:54:21;8.63;;;4.38;;
76296;SDS011;65104;52.994;6.552;2022-12-18T14:56:49;10.05;;;4.90;;
76296;SDS011;65104;52.994;6.552;2022-12-18T14:59:21;7.70;;;5.10;;
76296;SDS011;65104;52.994;6.552;2022-12-18T15:04:36;5.85;;;4.00;;
76296;SDS011;65104;52.994;6.552;2022-12-18T15:12:46;8.10;;;4.55;;
76296;SDS011;65104;52.994;6.552;2022-12-18T15:25:56;9.73;;;5.68;;
76296;SDS011;65104;52.994;6.552;2022-12-18T15:28:37;8.35;;;4.68;;
76296;SDS011;65104;52.994;6.552;2022-12-18T15:33:34;10.68;;;5.13;;
76296;SDS011;65104;52.994;6.552;2022-12-18T15:36:05;8.40;;;5.82;;
76296;SDS011;65104;52.994;6.552;2022-12-18T15:38:34;12.13;;;6.05;;
76296;SDS011;65104;52.994;6.552;2022-12-18T15:41:00;13.55;;;6.13;;
76296;SDS011;65104;52.994;6.552;2022-12-18T15:43:29;10.48;;;6.07;;
76296;SDS011;65104;52.994;6.552;2022-12-18T15:45:58;10.82;;;5.45;;
76296;SDS011;65104;52.994;6.552;2022-12-18T15:48:24;7.05;;;5.00;;
76296;SDS011;65104;52.994;6.552;2022-12-18T15:50:50;8.77;;;5.70;;
76296;SDS011;65104;52.994;6.552;2022-12-18T15:53:18;9.32;;;6.10;;
76296;SDS011;65104;52.994;6.552;2022-12-18T15:55:44;9.43;;;6.60;;
76296;SDS011;65104;52.994;6.552;2022-12-18T15:58:29;10.45;;;4.85;;
76296;SDS011;65104;52.994;6.552;2022-12-18T16:00:54;11.15;;;5.28;;
76296;SDS011;65104;52.994;6.552;2022-12-18T16:03:22;10.15;;;5.50;;
76296;SDS011;65104;52.994;6.552;2022-12-18T16:05:48;12.43;;;5.65;;
76296;SDS011;65104;52.994;6.552;2022-12-18T16:08:13;13.65;;;5.75;;
76296;SDS011;65104;52.994;6.552;2022-12-18T16:10:39;8.90;;;5.43;;
76296;SDS011;65104;52.994;6.552;2022-12-18T16:13:05;11.23;;;6.45;;
76296;SDS011;65104;52.994;6.552;2022-12-18T16:15:34;8.77;;;5.22;;
76296;SDS011;65104;52.994;6.552;2022-12-18T16:18:00;10.85;;;5.35;;
76296;SDS011;65104;52.994;6.552;2022-12-18T16:20:26;10.10;;;5.75;;
76296;SDS011;65104;52.994;6.552;2022-12-18T16:22:51;12.30;;;6.38;;
76296;SDS011;65104;52.994;6.552;2022-12-18T16:25:22;12.07;;;6.05;;
76296;SDS011;65104;52.994;6.552;2022-12-18T16:27:49;13.35;;;7.32;;
76296;SDS011;65104;52.994;6.552;2022-12-18T16:30:16;9.60;;;6.30;;
76296;SDS011;65104;52.994;6.552;2022-12-18T16:32:43;14.05;;;7.30;;
76296;SDS011;65104;52.994;6.552;2022-12-18T16:35:12;11.02;;;5.55;;
76296;SDS011;65104;52.994;6.552;2022-12-18T16:37:39;10.40;;;5.63;;
76296;SDS011;65104;52.994;6.552;2022-12-18T16:40:09;13.13;;;5.65;;
76296;SDS011;65104;52.994;6.552;2022-12-18T16:42:36;11.18;;;5.63;;
76296;SDS011;65104;52.994;6.552;2022-12-18T16:45:03;12.43;;;5.68;;
76296;SDS011;65104;52.994;6.552;2022-12-18T16:47:29;9.20;;;5.35;;
76296;SDS011;65104;52.994;6.552;2022-12-18T16:49:55;9.90;;;5.78;;
76296;SDS011;65104;52.994;6.552;2022-12-18T16:52:21;10.68;;;6.00;;
76296;SDS011;65104;52.994;6.552;2022-12-18T16:54:47;9.93;;;5.82;;
76296;SDS011;65104;52.994;6.552;2022-12-18T16:57:14;14.63;;;6.70;;
76296;SDS011;65104;52.994;6.552;2022-12-18T16:59:42;10.65;;;5.15;;
76296;SDS011;65104;52.994;6.552;2022-12-18T17:04:59;11.57;;;5.68;;
76296;SDS011;65104;52.994;6.552;2022-12-18T17:07:25;9.73;;;5.43;;
76296;SDS011;65104;52.994;6.552;2022-12-18T17:09:52;10.50;;;5.60;;
76296;SDS011;65104;52.994;6.552;2022-12-18T17:12:18;11.30;;;5.75;;
76296;SDS011;65104;52.994;6.552;2022-12-18T17:14:44;8.23;;;5.53;;
76296;SDS011;65104;52.994;6.552;2022-12-18T17:17:09;9.45;;;5.60;;
76296;SDS011;65104;52.994;6.552;2022-12-18T17:19:35;10.90;;;5.55;;
76296;SDS011;65104;52.994;6.552;2022-12-18T17:22:01;13.32;;;5.60;;
76296;SDS011;65104;52.994;6.552;2022-12-18T17:24:26;10.73;;;5.70;;
76296;SDS011;65104;52.994;6.552;2022-12-18T17:26:52;15.07;;;6.63;;